Time;durP1;ratioP1;P1;durP2;ratioP2;P2;SDS_P1;SDS_P2;PMS_P1;PMS_P2;Temp;Humidity;BMP_temperature;BMP_pressure;BME280_temperature;BME280_humidity;BME280_pressure;Samples;Min_cycle;Max_cycle;Signal;HPM_P1;HPM_P2
2022/06/01 00:01:57;;;;;;;10.40;8.50;;;;;;;10.20;94.17;100343.03;5033468;28;20593;-79
2022/06/01 00:04:23;;;;;;;10.45;9.40;;;;;;;10.18;94.40;100340.41;5036453;28;20064;-79
2022/06/01 00:06:48;;;;;;;7.35;6.55;;;;;;;10.20;94.04;100335.13;5034886;28;20040;-79
2022/06/01 00:09:13;;;;;;;7.85;6.22;;;;;;;10.16;93.63;100342.16;5033656;28;20057;-80
2022/06/01 00:11:39;;;;;;;8.57;7.13;;;;;;;10.13;93.18;100344.81;5034814;28;20088;-80
2022/06/01 00:14:05;;;;;;;8.02;7.13;;;;;;;10.13;92.16;100344.81;5034942;28;20049;-79
2022/06/01 00:16:31;;;;;;;10.48;8.63;;;;;;;10.11;91.75;100341.31;5037080;28;20044;-80
2022/06/01 00:18:57;;;;;;;9.15;7.75;;;;;;;10.07;91.87;100351.03;5035100;28;20501;-79
2022/06/01 00:21:22;;;;;;;8.30;7.00;;;;;;;10.04;92.21;100342.28;5036642;28;20056;-79
2022/06/01 00:23:48;;;;;;;8.75;7.85;;;;;;;10.00;92.14;100348.44;5032539;28;20034;-80
2022/06/01 00:26:13;;;;;;;11.85;10.65;;;;;;;9.95;92.02;100347.59;5035417;28;20417;-79
2022/06/01 00:28:39;;;;;;;15.05;12.77;;;;;;;9.92;92.71;100344.97;5037439;28;20041;-80
2022/06/01 00:31:04;;;;;;;9.02;7.80;;;;;;;9.92;93.09;100353.75;5040514;28;20049;-79
2022/06/01 00:33:29;;;;;;;11.88;10.65;;;;;;;9.90;93.54;100350.25;5035157;28;20052;-79
2022/06/01 00:35:55;;;;;;;15.80;12.68;;;;;;;9.85;93.08;100357.31;5035761;28;20370;-79
2022/06/01 00:38:21;;;;;;;14.48;11.07;;;;;;;9.84;93.47;100358.22;5040487;28;20430;-79
2022/06/01 00:40:46;;;;;;;12.02;10.48;;;;;;;9.80;93.56;100361.75;5038008;28;20049;-78
2022/06/01 00:43:44;;;;;;;12.50;11.20;;;;;;;9.79;94.15;100365.25;5036148;28;20040;-80
2022/06/01 00:46:10;;;;;;;12.70;10.35;;;;;;;9.78;94.18;100360.88;5041991;28;20025;-80
2022/06/01 00:48:39;;;;;;;13.00;11.45;;;;;;;9.77;94.05;100367.03;5036932;28;20044;-79
2022/06/01 00:51:08;;;;;;;15.13;12.57;;;;;;;9.70;94.89;100365.34;5038794;28;20045;-79
2022/06/01 00:53:37;;;;;;;12.77;11.38;;;;;;;9.66;95.54;100360.06;5040489;28;20037;-80
2022/06/01 00:56:10;;;;;;;14.18;12.50;;;;;;;9.65;96.14;100357.44;5041566;28;20036;-79
2022/06/01 00:58:38;;;;;;;13.02;11.40;;;;;;;9.61;96.17;100355.69;5039589;28;20065;-79
2022/06/01 01:01:08;;;;;;;12.02;9.70;;;;;;;9.58;96.00;100361.84;5043025;28;20090;-80
2022/06/01 01:03:36;;;;;;;14.55;11.13;;;;;;;9.58;95.77;100366.25;5021733;28;20424;-78
2022/06/01 01:06:21;;;;;;;13.43;9.93;;;;;;;9.56;95.86;100362.75;5037829;28;20080;-79
2022/06/01 01:08:47;;;;;;;9.68;8.45;;;;;;;9.50;95.38;100361.00;5038033;28;20045;-79
2022/06/01 01:11:13;;;;;;;10.80;9.70;;;;;;;9.49;95.41;100353.13;5042600;28;20041;-80
2022/06/01 01:13:44;;;;;;;13.75;12.13;;;;;;;9.48;95.45;100352.22;5033612;28;20033;-81
2022/06/01 01:16:10;;;;;;;12.73;9.35;;;;;;;9.44;95.28;100358.41;5047234;28;20053;-79
2022/06/01 01:18:39;;;;;;;10.98;9.05;;;;;;;9.41;94.91;100358.44;5037499;28;20038;-79
2022/06/01 01:21:13;;;;;;;12.65;10.02;;;;;;;9.37;95.72;100357.56;5039378;28;20041;-80
2022/06/01 01:24:00;;;;;;;10.82;8.60;;;;;;;9.34;97.10;100352.31;5051464;28;20064;-80
2022/06/01 01:26:26;;;;;;;11.98;10.25;;;;;;;9.31;96.84;100351.44;5042605;28;20044;-80
2022/06/01 01:28:52;;;;;;;12.07;10.30;;;;;;;9.31;96.68;100354.94;5039209;28;20412;-80
2022/06/01 01:31:23;;;;;;;14.73;12.82;;;;;;;9.30;96.78;100357.56;5039908;28;20045;-79
2022/06/01 01:33:52;;;;;;;11.48;9.20;;;;;;;9.29;96.69;100353.22;5043683;28;20038;-80
2022/06/01 01:36:21;;;;;;;9.98;8.98;;;;;;;9.31;96.54;100351.44;5037720;28;20034;-80
2022/06/01 01:38:58;;;;;;;12.48;10.32;;;;;;;9.31;96.94;100348.81;5043378;28;20029;-79
2022/06/01 01:41:28;;;;;;;11.85;10.27;;;;;;;9.30;96.15;100345.31;5035831;28;20052;-80
2022/06/01 01:44:17;;;;;;;11.10;8.55;;;;;;;9.31;96.07;100343.56;5039894;28;20362;-81
2022/06/01 01:46:47;;;;;;;13.02;11.63;;;;;;;9.25;96.10;100344.44;5038064;28;20098;-79
2022/06/01 01:49:14;;;;;;;13.95;11.90;;;;;;;9.25;95.78;100349.72;5043841;28;20037;-80
2022/06/01 01:51:39;;;;;;;14.60;11.23;;;;;;;9.24;95.59;100349.72;5038257;28;20029;-80
2022/06/01 01:54:16;;;;;;;14.55;10.05;;;;;;;9.23;95.60;100353.25;5020467;28;20044;-80
2022/06/01 01:56:57;;;;;;;8.85;7.82;;;;;;;9.24;95.12;100354.97;5052080;28;20037;-79
2022/06/01 01:59:40;;;;;;;17.17;12.15;;;;;;;9.19;95.28;100358.50;5038675;28;20040;-80
2022/06/01 02:02:43;;;;;;;13.18;10.23;;;;;;;9.21;94.91;100362.00;5035890;28;20069;-80
2022/06/01 02:08:23;;;;;;;11.68;9.80;;;;;;;9.17;94.62;100362.91;5035138;28;20508;-80
2022/06/01 02:13:37;;;;;;;11.90;8.77;;;;;;;9.16;94.48;100355.00;5034583;28;20072;-80
2022/06/01 02:16:02;;;;;;;10.68;8.98;;;;;;;9.15;93.78;100348.00;5044872;28;20030;-80
2022/06/01 02:18:36;;;;;;;13.82;9.85;;;;;;;9.14;93.63;100348.84;5022472;28;20060;-80
2022/06/01 02:21:06;;;;;;;12.48;9.10;;;;;;;9.08;92.88;100341.84;5040672;28;20076;-79
2022/06/01 02:23:32;;;;;;;11.70;9.85;;;;;;;9.07;93.16;100342.75;5045093;28;20118;-79
2022/06/01 02:25:59;;;;;;;12.05;10.52;;;;;;;9.06;92.54;100348.00;5032036;28;20053;-78
2022/06/01 02:28:26;;;;;;;11.88;9.60;;;;;;;8.97;91.96;100359.44;5042401;28;20048;-78
2022/06/01 02:30:54;;;;;;;11.18;9.13;;;;;;;8.94;92.90;100351.56;5039592;28;20030;-78
2022/06/01 02:33:23;;;;;;;11.70;9.75;;;;;;;8.96;92.99;100361.22;5034116;28;20037;-80
2022/06/01 02:35:53;;;;;;;12.45;11.07;;;;;;;8.90;92.20;100355.94;5040237;28;20065;-80
2022/06/01 02:38:25;;;;;;;13.20;11.40;;;;;;;8.87;92.72;100355.09;5039206;28;20037;-80
2022/06/01 02:40:51;;;;;;;11.57;9.48;;;;;;;8.83;92.81;100362.13;5036066;28;20110;-78
2022/06/01 02:43:16;;;;;;;12.45;10.02;;;;;;;8.84;92.76;100365.63;5032578;28;20108;-79
2022/06/01 02:45:42;;;;;;;9.18;8.18;;;;;;;8.81;92.56;100363.00;5036015;28;20034;-79
2022/06/01 02:48:07;;;;;;;11.75;8.88;;;;;;;8.75;91.64;100362.13;5033629;28;20500;-78
2022/06/01 02:50:35;;;;;;;11.18;9.43;;;;;;;8.71;91.87;100363.00;5034689;28;20034;-80
2022/06/01 02:53:00;;;;;;;8.60;7.70;;;;;;;8.65;91.69;100370.91;5034441;28;20038;-80
2022/06/01 02:55:28;;;;;;;10.13;9.10;;;;;;;8.58;91.51;100374.41;5033128;28;20040;-79
2022/06/01 02:57:54;;;;;;;11.63;10.13;;;;;;;8.54;91.44;100375.28;5032891;28;20103;-79
2022/06/01 03:00:37;;;;;;;12.48;9.98;;;;;;;8.53;91.89;100371.78;5034124;28;20048;-79
2022/06/01 03:03:04;;;;;;;14.63;10.52;;;;;;;8.57;92.29;100388.47;5032174;28;20096;-79
2022/06/01 03:05:33;;;;;;;12.68;10.85;;;;;;;8.57;92.67;100385.81;5031925;28;20105;-79
2022/06/01 03:07:59;;;;;;;13.35;10.02;;;;;;;8.55;92.52;100391.06;5034204;28;20042;-79
2022/06/01 03:10:25;;;;;;;19.20;15.98;;;;;;;8.55;92.98;100392.84;5031397;28;20368;-80
2022/06/01 03:12:51;;;;;;;16.75;14.98;;;;;;;8.56;92.85;100400.69;5036251;28;20049;-79
2022/06/01 03:15:18;;;;;;;11.77;9.50;;;;;;;8.60;92.92;100391.06;5031859;28;20030;-78
2022/06/01 03:17:45;;;;;;;15.23;12.32;;;;;;;8.63;92.96;100387.56;5037039;28;20037;-79
2022/06/01 03:20:15;;;;;;;10.18;8.27;;;;;;;8.67;91.59;100381.41;5036906;28;20037;-79
2022/06/01 03:22:41;;;;;;;12.65;10.27;;;;;;;8.63;90.68;100383.19;5036388;28;20042;-79
2022/06/01 03:25:10;;;;;;;9.73;7.57;;;;;;;8.65;90.14;100386.69;5038049;28;20042;-79
2022/06/01 03:27:36;;;;;;;10.23;9.13;;;;;;;8.68;89.63;100375.28;5037583;28;20037;-80
2022/06/01 03:30:03;;;;;;;13.25;11.63;;;;;;;8.75;90.21;100375.28;5035056;28;20034;-79
2022/06/01 03:32:28;;;;;;;17.17;12.88;;;;;;;8.78;90.50;100369.16;5040282;28;20431;-78
2022/06/01 03:34:54;;;;;;;21.88;15.88;;;;;;;8.77;90.97;100370.88;5040856;28;20042;-79
2022/06/01 03:37:20;;;;;;;16.25;14.55;;;;;;;8.87;91.66;100373.50;5039233;28;20022;-80
2022/06/01 03:39:45;;;;;;;14.93;12.38;;;;;;;8.90;91.00;100369.09;5041262;28;20411;-79
2022/06/01 03:42:10;;;;;;;15.95;13.05;;;;;;;8.91;90.84;100368.25;5035614;28;20497;-79
2022/06/01 03:47:20;;;;;;;11.70;10.48;;;;;;;9.02;91.08;100376.09;5040513;28;20050;-79
2022/06/01 03:49:46;;;;;;;8.52;7.63;;;;;;;9.07;90.46;100373.47;5037039;28;20038;-79
2022/06/01 03:52:12;;;;;;;10.10;8.50;;;;;;;9.02;89.51;100381.38;5037106;28;20049;-79
2022/06/01 03:54:38;;;;;;;9.18;7.15;;;;;;;9.01;89.19;100379.59;5035618;28;20034;-78
2022/06/01 03:57:04;;;;;;;8.20;6.78;;;;;;;9.07;89.04;100368.22;5036952;28;20123;-79
2022/06/01 03:59:31;;;;;;;11.63;9.00;;;;;;;9.13;88.84;100374.31;5035009;28;20026;-78
2022/06/01 04:02:01;;;;;;;14.20;12.63;;;;;;;9.18;89.46;100377.81;5038461;28;20049;-80
2022/06/01 04:04:27;;;;;;;12.05;10.85;;;;;;;9.21;89.89;100377.81;5038397;28;20041;-80
2022/06/01 04:06:52;;;;;;;10.23;7.80;;;;;;;9.29;90.12;100374.28;5040744;28;20077;-78
2022/06/01 04:09:18;;;;;;;11.00;8.48;;;;;;;9.34;90.11;100376.00;5043779;28;20056;-79
2022/06/01 04:11:43;;;;;;;11.32;9.45;;;;;;;9.38;89.80;100377.75;5037783;28;20046;-79
2022/06/01 04:14:08;;;;;;;10.88;9.52;;;;;;;9.42;89.81;100376.84;5036844;28;20050;-79
2022/06/01 04:16:34;;;;;;;11.25;9.40;;;;;;;9.52;89.91;100377.69;5042856;28;20021;-79
2022/06/01 04:18:59;;;;;;;9.27;7.88;;;;;;;9.60;89.67;100380.31;5038157;28;20030;-81
2022/06/01 04:21:27;;;;;;;13.43;11.75;;;;;;;9.68;89.43;100382.91;5033933;28;20049;-80
2022/06/01 04:23:57;;;;;;;14.10;11.27;;;;;;;9.79;89.71;100381.06;5039483;28;20044;-79
2022/06/01 04:26:22;;;;;;;13.50;11.25;;;;;;;9.91;89.49;100373.09;5037939;28;20041;-79
2022/06/01 04:28:47;;;;;;;20.15;14.90;;;;;;;9.99;89.59;100368.66;5041702;28;20039;-78
2022/06/01 04:31:13;;;;;;;19.17;16.50;;;;;;;10.08;88.74;100380.91;5046981;28;20573;-79
2022/06/01 04:33:42;;;;;;;20.08;17.70;;;;;;;10.19;89.27;100380.81;5047850;28;20032;-79
2022/06/01 04:36:08;;;;;;;19.75;16.50;;;;;;;10.27;89.16;100382.56;5045524;28;20033;-80
2022/06/01 04:38:33;;;;;;;14.45;12.88;;;;;;;10.30;89.02;100386.97;5043115;28;20116;-80
2022/06/01 04:40:58;;;;;;;19.58;17.48;;;;;;;10.27;89.61;100389.56;5043409;28;20069;-80
2022/06/01 04:43:24;;;;;;;19.05;17.13;;;;;;;10.33;89.54;100397.47;5042372;28;20041;-79
2022/06/01 04:45:51;;;;;;;19.30;16.70;;;;;;;10.41;89.97;100397.44;5044045;28;20040;-80
2022/06/01 04:48:17;;;;;;;20.35;16.85;;;;;;;10.48;90.45;100402.66;5027987;28;20037;-78
2022/06/01 04:50:42;;;;;;;21.00;17.92;;;;;;;10.61;89.84;100399.88;5038567;28;20454;-79
2022/06/01 04:53:16;;;;;;;22.98;20.48;;;;;;;10.71;90.35;100399.78;5045093;28;20036;-80
2022/06/01 04:55:43;;;;;;;23.02;17.70;;;;;;;10.82;90.24;100402.34;5054241;28;20046;-79
2022/06/01 04:58:08;;;;;;;19.48;17.13;;;;;;;10.91;89.68;100399.63;5042050;28;20029;-80
2022/06/01 05:00:34;;;;;;;19.80;17.70;;;;;;;11.01;89.18;100395.13;5041241;28;20085;-79
2022/06/01 05:03:00;;;;;;;19.63;17.52;;;;;;;11.10;89.08;100392.38;5039351;28;20041;-79
2022/06/01 05:05:25;;;;;;;20.60;18.40;;;;;;;11.19;88.65;100387.00;5033712;28;20034;-80
2022/06/01 05:07:51;;;;;;;19.88;17.77;;;;;;;11.29;88.52;100393.06;5037920;28;20087;-80
2022/06/01 05:10:17;;;;;;;21.02;18.67;;;;;;;11.37;88.55;100385.03;5030408;28;20044;-80
2022/06/01 05:12:42;;;;;;;18.52;16.30;;;;;;;11.45;87.86;100385.84;5028568;28;20037;-79
2022/06/01 05:15:08;;;;;;;24.38;20.23;;;;;;;11.52;88.26;100387.50;5026294;28;20036;-80
2022/06/01 05:17:34;;;;;;;17.55;15.75;;;;;;;11.62;87.73;100378.56;5028083;28;20026;-80
2022/06/01 05:20:00;;;;;;;25.10;20.98;;;;;;;11.73;87.26;100375.78;5028822;28;20044;-80
2022/06/01 05:22:26;;;;;;;24.40;19.88;;;;;;;11.81;87.31;100371.25;5024278;28;20045;-80
2022/06/01 05:24:51;;;;;;;24.92;20.35;;;;;;;11.85;86.50;100375.63;5028523;28;20057;-80
2022/06/01 05:27:16;;;;;;;25.15;20.77;;;;;;;11.92;86.47;100380.84;5028407;28;20546;-79
2022/06/01 05:29:41;;;;;;;21.05;18.25;;;;;;;11.94;86.62;100387.84;5031346;28;20046;-80
2022/06/01 05:32:07;;;;;;;22.10;19.52;;;;;;;11.98;87.23;100373.72;5032274;28;20067;-81
2022/06/01 05:34:32;;;;;;;26.20;21.73;;;;;;;12.10;86.66;100382.34;5032370;28;20518;-80
2022/06/01 05:36:58;;;;;;;25.25;22.38;;;;;;;12.19;86.73;100385.75;5033198;28;20045;-80
2022/06/01 05:39:24;;;;;;;21.50;18.83;;;;;;;12.26;86.69;100387.41;5032909;28;20033;-80
2022/06/01 05:41:50;;;;;;;21.70;19.48;;;;;;;12.34;86.66;100389.94;5026735;28;20121;-80
2022/06/01 05:44:16;;;;;;;21.65;19.45;;;;;;;12.34;86.12;100394.31;5026245;28;20452;-80
2022/06/01 05:46:42;;;;;;;20.83;18.50;;;;;;;12.36;86.26;100398.69;5022790;28;20038;-80
2022/06/01 05:49:07;;;;;;;23.17;20.88;;;;;;;12.45;86.52;100397.69;5039091;28;20484;-80
2022/06/01 05:51:34;;;;;;;20.73;17.45;;;;;;;12.53;85.92;100389.63;5041165;28;20116;-80
2022/06/01 05:53:59;;;;;;;21.42;18.63;;;;;;;12.62;86.11;100386.81;5033137;28;20549;-80
2022/06/01 05:56:25;;;;;;;21.38;18.52;;;;;;;12.76;85.38;100390.13;5024999;28;20093;-80
2022/06/01 05:58:51;;;;;;;25.77;19.42;;;;;;;12.88;84.51;100392.53;5026202;28;20542;-80
2022/06/01 06:01:17;;;;;;;18.40;16.50;;;;;;;12.99;83.99;100389.69;5025852;28;20080;-79
2022/06/01 06:03:43;;;;;;;22.73;17.55;;;;;;;13.12;83.70;100385.91;5023452;28;20112;-80
2022/06/01 06:06:17;;;;;;;21.42;19.30;;;;;;;13.20;83.23;100383.13;5026792;28;20017;-80
2022/06/01 06:08:53;;;;;;;21.63;19.42;;;;;;;13.32;83.45;100376.75;5038488;28;20040;-80
2022/06/01 06:11:19;;;;;;;18.65;16.70;;;;;;;13.40;83.11;100387.19;5024436;28;20029;-80
2022/06/01 06:13:45;;;;;;;18.88;16.85;;;;;;;13.56;82.75;100380.69;5027549;28;20042;-81
2022/06/01 06:16:12;;;;;;;16.77;14.98;;;;;;;13.73;81.96;100389.16;5031068;28;20088;-80
2022/06/01 06:18:38;;;;;;;15.98;14.27;;;;;;;13.86;81.42;100395.06;5032999;28;20029;-80
2022/06/01 06:21:04;;;;;;;18.13;16.13;;;;;;;13.95;81.58;100404.59;5029703;28;20097;-80
2022/06/01 06:23:29;;;;;;;17.65;13.80;;;;;;;14.02;80.00;100406.22;5031370;28;20474;-80
2022/06/01 06:25:54;;;;;;;19.20;13.75;;;;;;;14.11;80.90;100398.03;5032802;28;20021;-80
2022/06/01 06:28:20;;;;;;;16.15;14.50;;;;;;;14.25;79.11;100397.72;5031311;28;20025;-80
2022/06/01 06:30:45;;;;;;;15.07;13.48;;;;;;;14.21;78.39;100404.00;5029948;28;20042;-79
2022/06/01 06:33:11;;;;;;;22.38;20.13;;;;;;;14.28;79.04;100408.28;5030848;28;20080;-80
2022/06/01 06:35:37;;;;;;;18.45;15.98;;;;;;;14.43;77.98;100412.34;5024742;28;20033;-80
2022/06/01 06:38:04;;;;;;;16.00;13.82;;;;;;;14.53;75.74;100415.69;5024057;28;20065;-80
2022/06/01 06:40:29;;;;;;;13.35;9.65;;;;;;;14.64;74.85;100403.00;5026215;28;20431;-80
2022/06/01 06:42:55;;;;;;;13.57;11.38;;;;;;;14.79;75.09;100404.41;5030467;28;20029;-80
2022/06/01 06:45:21;;;;;;;12.32;10.40;;;;;;;15.01;74.02;100408.28;5026818;28;20057;-80
2022/06/01 06:47:47;;;;;;;10.85;9.00;;;;;;;15.24;71.67;100417.41;5021251;28;20080;-79
2022/06/01 06:50:15;;;;;;;10.45;9.20;;;;;;;15.33;71.21;100412.72;5027016;28;20087;-80
2022/06/01 06:52:40;;;;;;;12.20;8.45;;;;;;;15.53;70.26;100413.94;5026455;28;20079;-81
2022/06/01 06:55:07;;;;;;;10.20;8.98;;;;;;;15.58;70.54;100412.00;5029768;28;20042;-80
2022/06/01 06:57:32;;;;;;;10.75;9.23;;;;;;;15.73;70.35;100400.09;5029884;28;20037;-80
2022/06/01 06:59:58;;;;;;;8.93;7.97;;;;;;;15.68;69.99;100405.50;5030184;28;20037;-80
2022/06/01 07:02:23;;;;;;;8.50;7.40;;;;;;;15.73;69.82;100398.31;5026443;28;20173;-80
2022/06/01 07:04:48;;;;;;;10.15;7.30;;;;;;;15.80;68.82;100403.44;5032794;28;20045;-80
2022/06/01 07:07:15;;;;;;;9.52;7.70;;;;;;;15.80;69.57;100401.66;5026692;28;20740;-80
2022/06/01 07:09:40;;;;;;;10.55;7.82;;;;;;;15.87;68.29;100403.19;5040518;28;20030;-80
2022/06/01 07:12:06;;;;;;;8.82;7.72;;;;;;;16.02;68.32;100407.19;5023495;28;20029;-80
2022/06/01 07:14:31;;;;;;;10.35;6.40;;;;;;;16.04;66.65;100404.50;5020758;28;20563;-79
2022/06/01 07:17:01;;;;;;;7.13;6.43;;;;;;;15.94;66.96;100404.78;5029435;28;20092;-80
2022/06/01 07:19:27;;;;;;;7.50;6.18;;;;;;;16.00;66.17;100406.38;5026654;28;20126;-80
2022/06/01 07:21:52;;;;;;;17.08;12.57;;;;;;;15.90;67.35;100402.25;5022386;28;20488;-80
2022/06/01 07:24:19;;;;;;;8.30;7.35;;;;;;;15.85;66.70;100404.16;5024999;28;20037;-79
2022/06/01 07:26:45;;;;;;;9.48;8.13;;;;;;;15.72;66.84;100404.56;5024364;28;20092;-80
2022/06/01 07:29:13;;;;;;;10.63;8.48;;;;;;;15.94;66.68;100401.25;5024528;28;20121;-80
2022/06/01 07:31:39;;;;;;;7.65;5.70;;;;;;;16.22;66.03;100406.59;5023173;28;20083;-80
2022/06/01 07:34:05;;;;;;;9.80;8.23;;;;;;;16.44;65.18;100402.31;5027716;28;20033;-80
2022/06/01 07:36:31;;;;;;;7.05;4.97;;;;;;;16.75;63.45;100401.31;5018621;28;20040;-79
2022/06/01 07:44:29;;;;;;;6.30;3.95;;;;;;;17.22;61.99;100392.63;5022290;28;20105;-80
2022/06/01 07:46:55;;;;;;;6.35;4.95;;;;;;;17.26;62.05;100394.25;5024327;28;20104;-80
2022/06/01 07:49:20;;;;;;;4.97;2.97;;;;;;;17.35;59.47;100399.25;5024635;28;20037;-79
2022/06/01 07:51:47;;;;;;;4.03;2.58;;;;;;;17.31;57.74;100389.59;5024702;28;20040;-79
2022/06/01 07:54:14;;;;;;;4.97;3.00;;;;;;;17.17;57.97;100394.59;5028212;28;20041;-80
2022/06/01 07:56:39;;;;;;;4.93;3.22;;;;;;;17.18;58.84;100394.50;5024096;28;20033;-80
2022/06/01 07:59:05;;;;;;;4.32;2.90;;;;;;;17.13;58.56;100387.59;5024425;28;20041;-80
2022/06/01 08:01:32;;;;;;;4.53;2.90;;;;;;;17.18;59.19;100390.97;5017753;28;20033;-78
2022/06/01 08:04:02;;;;;;;5.82;3.90;;;;;;;17.22;58.55;100397.97;5022701;28;20033;-79
2022/06/01 08:06:28;;;;;;;3.95;2.63;;;;;;;17.39;58.72;100397.34;5024889;28;20472;-79
2022/06/01 08:08:54;;;;;;;3.92;2.70;;;;;;;17.55;58.63;100397.63;5022074;28;20042;-80
2022/06/01 08:11:21;;;;;;;9.85;5.82;;;;;;;17.57;57.12;100391.31;5022103;28;20044;-79
2022/06/01 08:13:46;;;;;;;5.85;2.25;;;;;;;17.51;55.29;100388.88;5021341;28;20040;-79
2022/06/01 08:16:12;;;;;;;3.30;2.20;;;;;;;17.65;55.01;100399.03;5030532;28;20037;-80
2022/06/01 08:18:37;;;;;;;3.42;2.03;;;;;;;17.66;56.11;100390.13;5029664;28;20080;-80
2022/06/01 08:21:04;;;;;;;7.13;4.45;;;;;;;17.89;55.34;100397.28;5031747;28;20080;-80
2022/06/01 08:23:31;;;;;;;4.30;2.50;;;;;;;18.04;55.02;100393.16;5020152;28;20496;-80
2022/06/01 08:25:57;;;;;;;9.20;3.25;;;;;;;18.22;54.49;100391.56;5024216;28;20037;-80
2022/06/01 08:28:23;;;;;;;9.23;5.70;;;;;;;18.67;54.15;100391.47;5022864;28;20057;-79
2022/06/01 08:30:49;;;;;;;6.05;3.75;;;;;;;19.07;51.26;100380.91;5022547;28;20042;-80
2022/06/01 08:33:15;;;;;;;2.85;1.90;;;;;;;19.43;49.13;100383.75;5022328;28;20033;-79
2022/06/01 08:35:45;;;;;;;3.20;1.70;;;;;;;19.31;49.84;100395.00;5021118;28;20038;-80
2022/06/01 08:38:11;;;;;;;6.85;3.85;;;;;;;19.29;51.41;100391.53;5024353;28;20029;-80
2022/06/01 08:40:51;;;;;;;5.47;2.80;;;;;;;19.76;49.17;100392.09;5025987;28;20080;-80
2022/06/01 08:43:21;;;;;;;3.47;2.20;;;;;;;20.09;48.08;100405.69;5026700;28;20124;-80
2022/06/01 08:45:50;;;;;;;4.13;2.42;;;;;;;20.47;45.93;100397.59;5023271;28;20038;-79
2022/06/01 08:48:20;;;;;;;4.72;1.48;;;;;;;20.46;45.10;100409.28;5027223;28;20030;-79
2022/06/01 08:50:46;;;;;;;4.68;1.90;;;;;;;20.23;43.44;100417.56;5028171;28;20160;-79
2022/06/01 08:53:12;;;;;;;4.75;1.63;;;;;;;19.93;44.68;100416.25;5031870;28;20037;-80
2022/06/01 08:56:09;;;;;;;4.00;1.67;;;;;;;20.27;45.94;100424.50;5009436;28;20044;-80
2022/06/01 08:58:46;;;;;;;2.80;1.80;;;;;;;20.25;44.48;100416.56;5028326;28;20034;-81
2022/06/01 09:01:33;;;;;;;5.90;1.77;;;;;;;20.07;46.06;100423.66;5025672;28;20116;-81
2022/06/01 09:04:34;;;;;;;3.35;1.95;;;;;;;19.83;45.58;100409.63;5033895;28;20038;-80
2022/06/01 09:07:26;;;;;;;4.32;2.28;;;;;;;19.77;42.43;100430.44;5025554;28;20038;-81
2022/06/01 09:10:16;;;;;;;2.42;1.17;;;;;;;19.73;42.23;100424.38;5027644;28;20064;-80
2022/06/01 09:12:44;;;;;;;5.60;1.05;;;;;;;19.68;42.47;100435.28;5027176;28;20385;-80
2022/06/01 09:15:21;;;;;;;2.72;1.10;;;;;;;19.68;42.15;100459.38;5023521;28;20034;-80
2022/06/01 09:17:47;;;;;;;3.50;1.52;;;;;;;19.54;43.96;100451.03;5026457;28;20042;-80
2022/06/01 09:23:09;;;;;;;4.68;1.20;;;;;;;19.12;45.53;100475.19;5026533;28;20042;-80
2022/06/01 09:25:35;;;;;;;2.63;1.42;;;;;;;18.74;46.98;100475.81;5023766;28;20049;-80
2022/06/01 09:28:16;;;;;;;3.53;1.73;;;;;;;18.32;49.74;100479.28;5027840;28;20033;-80
2022/06/01 09:30:54;;;;;;;3.28;1.60;;;;;;;18.00;50.73;100485.88;5030849;28;20504;-80
2022/06/01 09:33:33;;;;;;;3.88;1.75;;;;;;;17.71;51.99;100477.09;5024786;28;20068;-80
2022/06/01 09:36:05;;;;;;;3.78;1.73;;;;;;;17.44;54.20;100481.59;5023769;28;20053;-80
2022/06/01 09:38:42;;;;;;;5.78;2.05;;;;;;;17.15;54.36;100476.44;5028984;28;20034;-80
2022/06/01 09:41:17;;;;;;;5.32;2.13;;;;;;;16.97;56.09;100488.56;5025555;28;20057;-79
2022/06/01 09:43:58;;;;;;;3.45;1.80;;;;;;;16.75;57.98;100478.59;5022037;28;20072;-80
2022/06/01 09:46:33;;;;;;;4.57;2.30;;;;;;;16.91;58.30;100471.00;5030038;28;20038;-80
2022/06/01 09:49:01;;;;;;;4.40;2.92;;;;;;;16.95;59.06;100467.31;5023086;28;20524;-80
2022/06/01 09:51:26;;;;;;;6.57;3.08;;;;;;;16.79;59.63;100463.41;5026416;28;20041;-79
2022/06/01 09:54:24;;;;;;;11.43;2.92;;;;;;;16.89;59.76;100470.16;5020325;28;20080;-80
2022/06/01 09:56:50;;;;;;;6.13;2.75;;;;;;;16.98;57.87;100480.53;5040931;28;20565;-80
2022/06/01 10:08:14;;;;;;;3.42;1.80;;;;;;;16.95;55.24;100462.00;5026295;28;20069;-82
2022/06/01 10:10:54;;;;;;;2.50;1.75;;;;;;;16.85;55.55;100461.41;5022945;28;20796;-81
2022/06/01 10:13:28;;;;;;;5.63;2.65;;;;;;;16.98;55.05;100453.88;5025179;28;20080;-80
2022/06/01 10:15:57;;;;;;;5.82;2.22;;;;;;;17.16;54.30;100454.16;5024086;28;20030;-80
2022/06/01 10:18:29;;;;;;;3.38;1.73;;;;;;;17.44;53.22;100444.25;5025863;28;20029;-82
2022/06/01 10:21:03;;;;;;;3.78;2.03;;;;;;;17.56;53.49;100444.75;5025867;28;20131;-80
2022/06/01 10:23:47;;;;;;;3.22;1.95;;;;;;;17.89;52.14;100443.56;5028553;28;20053;-81
2022/06/01 10:26:18;;;;;;;4.07;1.50;;;;;;;17.84;51.56;100436.63;5035815;28;20109;-81
2022/06/01 10:28:50;;;;;;;4.25;1.77;;;;;;;18.06;52.35;100436.69;5030809;28;20152;-82
2022/06/01 10:31:27;;;;;;;3.72;1.73;;;;;;;18.19;50.96;100429.94;5030265;28;20112;-82
2022/06/01 10:34:14;;;;;;;4.47;1.77;;;;;;;18.30;51.07;100422.34;5036654;28;20037;-81
2022/06/01 10:36:48;;;;;;;2.78;1.40;;;;;;;18.61;50.14;100429.16;5033679;28;20035;-81
2022/06/01 10:39:25;;;;;;;4.53;1.70;;;;;;;18.97;48.68;100424.09;5035710;28;20030;-82
2022/06/01 10:42:09;;;;;;;2.78;1.58;;;;;;;19.05;48.12;100421.97;5034893;28;20042;-83
2022/06/01 10:44:51;;;;;;;4.13;2.13;;;;;;;19.52;47.40;100419.94;5025834;28;20045;-81
2022/06/01 10:47:38;;;;;;;2.45;1.40;;;;;;;19.93;46.39;100416.25;5026880;28;20343;-80
2022/06/01 10:50:09;;;;;;;3.35;1.33;;;;;;;19.97;45.19;100422.34;5023814;28;20120;-81
2022/06/01 10:52:42;;;;;;;5.00;2.40;;;;;;;19.92;45.89;100430.59;5033148;28;20033;-81
2022/06/01 10:55:34;;;;;;;3.60;1.92;;;;;;;19.88;45.79;100436.16;5029370;28;20037;-82
2022/06/01 10:58:01;;;;;;;3.33;1.77;;;;;;;20.01;45.95;100423.06;5028611;28;20045;-82
2022/06/01 11:00:33;;;;;;;3.55;1.90;;;;;;;19.97;45.48;100425.03;5026073;28;20041;-86
2022/06/01 11:03:43;;;;;;;2.83;1.58;;;;;;;20.31;43.79;100424.28;5029899;28;20084;-85
2022/06/01 11:06:33;;;;;;;3.70;1.77;;;;;;;20.76;43.86;100406.06;5023353;28;20029;-85
2022/06/01 11:09:17;;;;;;;3.65;1.60;;;;;;;20.97;42.69;100404.94;5026361;28;20037;-86
2022/06/01 11:12:08;;;;;;;4.03;1.50;;;;;;;21.19;42.74;100395.78;5019853;28;20034;-85
2022/06/01 11:14:43;;;;;;;3.08;1.50;;;;;;;21.05;42.36;100395.66;5026292;28;20037;-85
2022/06/01 11:17:25;;;;;;;2.60;1.25;;;;;;;20.91;43.22;100405.28;5023092;28;20038;-86
2022/06/01 11:20:02;;;;;;;;;;;;;;;20.79;43.56;100405.88;5017235;28;20034;-86
2022/06/01 11:22:51;;;;;;;3.88;1.50;;;;;;;20.69;42.62;100399.25;5025405;28;19917;-85
2022/06/01 11:25:45;;;;;;;2.70;1.30;;;;;;;20.83;42.28;100396.75;5040194;28;20036;-85
2022/06/01 11:28:32;;;;;;;3.95;1.55;;;;;;;20.81;42.91;100387.91;5023688;28;20136;-84
2022/06/01 11:31:15;;;;;;;2.53;1.42;;;;;;;21.50;41.87;100391.50;5028399;28;20026;-86
2022/06/01 11:33:59;;;;;;;3.60;1.50;;;;;;;22.17;40.36;100387.81;5041154;28;20168;-85
2022/06/01 11:36:48;;;;;;;3.47;1.50;;;;;;;22.40;38.57;100385.63;5026505;28;20033;-85
2022/06/01 11:39:31;;;;;;;2.80;1.70;;;;;;;22.23;37.05;100389.31;5023101;28;20041;-85
2022/06/01 11:42:13;;;;;;;2.03;0.93;;;;;;;22.15;37.40;100387.00;5021052;28;20044;-86
2022/06/01 11:44:41;;;;;;;;;;;;;;;22.12;37.77;100392.56;5027888;28;20037;-85
2022/06/01 11:47:30;;;;;;;1.83;1.20;;;;;;;22.38;38.84;100384.88;5032282;28;19913;-85
2022/06/01 11:50:10;;;;;;;3.70;1.33;;;;;;;22.96;37.55;100381.44;5029083;28;20103;-85
2022/06/01 11:52:50;;;;;;;2.13;1.10;;;;;;;22.60;35.55;100379.97;5021511;28;20141;-85
2022/06/01 11:55:16;;;;;;;2.63;1.02;;;;;;;22.75;36.90;100372.81;5023273;28;20037;-83
2022/06/01 11:57:44;;;;;;;3.20;1.25;;;;;;;23.14;36.30;100371.44;5024528;28;20055;-85
2022/06/01 12:00:51;;;;;;;3.85;1.05;;;;;;;23.21;35.91;100358.44;5021832;28;20038;-85
2022/06/01 12:03:19;;;;;;;3.00;1.00;;;;;;;23.67;34.62;100361.81;5016736;28;20108;-84